Time;durP1;ratioP1;P1;durP2;ratioP2;P2;SDS_P1;SDS_P2;PMS_P1;PMS_P2;Temp;Humidity;BMP_temperature;BMP_pressure;BME280_temperature;BME280_humidity;BME280_pressure;Samples;Min_cycle;Max_cycle;Signal;HPM_P1;HPM_P2
2022/07/22 00:01:36;;;;;;;11.45;3.78;;;;;;;15.76;100.00;102140.56;5060258;28;20557;-49
2022/07/22 00:04:02;;;;;;;8.40;3.78;;;;;;;15.79;100.00;102131.31;5055203;28;20058;-49
2022/07/22 00:06:28;;;;;;;14.45;4.47;;;;;;;15.79;100.00;102137.53;5056153;28;20055;-50
2022/07/22 00:08:54;;;;;;;15.98;4.63;;;;;;;15.76;100.00;102143.25;5053555;28;20107;-52
2022/07/22 00:11:19;;;;;;;19.88;4.85;;;;;;;15.79;100.00;102137.53;5050699;28;20103;-51
2022/07/22 00:13:45;;;;;;;10.88;4.10;;;;;;;15.79;100.00;102134.03;5058326;28;20448;-48
2022/07/22 00:16:11;;;;;;;16.23;4.95;;;;;;;15.83;100.00;102141.63;5064254;28;20116;-52
2022/07/22 00:18:36;;;;;;;13.05;4.60;;;;;;;15.80;100.00;102133.00;5056332;28;20131;-49
2022/07/22 00:21:02;;;;;;;15.48;5.05;;;;;;;15.81;100.00;102126.59;5054919;28;20108;-49
2022/07/22 00:23:28;;;;;;;16.83;4.65;;;;;;;15.85;100.00;102133.34;5051065;28;20039;-52
2022/07/22 00:25:53;;;;;;;17.20;4.72;;;;;;;15.89;100.00;102125.81;5057220;28;20056;-47
2022/07/22 00:28:19;;;;;;;18.92;5.03;;;;;;;15.89;100.00;102118.56;5054405;28;20028;-49
2022/07/22 00:30:44;;;;;;;19.80;4.55;;;;;;;15.92;100.00;102120.06;5063578;28;20574;-50
2022/07/22 00:33:10;;;;;;;21.17;4.70;;;;;;;15.90;100.00;102122.91;5056387;28;20024;-47
2022/07/22 00:35:35;;;;;;;13.73;4.50;;;;;;;15.91;100.00;102124.63;5056747;28;20202;-51
2022/07/22 00:38:00;;;;;;;14.70;4.75;;;;;;;15.92;100.00;102125.44;5057542;28;20077;-48
2022/07/22 00:40:26;;;;;;;15.85;5.07;;;;;;;15.92;100.00;102129.00;5056443;28;20272;-48
2022/07/22 00:42:52;;;;;;;14.02;4.63;;;;;;;15.94;100.00;102124.28;5057091;28;20442;-48
2022/07/22 00:45:18;;;;;;;15.35;4.72;;;;;;;15.96;100.00;102122.28;5056264;28;20619;-49
2022/07/22 00:47:43;;;;;;;25.42;5.10;;;;;;;15.93;100.00;102125.28;5056648;28;20100;-49
2022/07/22 00:50:09;;;;;;;23.10;5.38;;;;;;;15.89;100.00;102123.94;5055864;28;20089;-51
2022/07/22 00:52:34;;;;;;;17.08;4.63;;;;;;;15.88;100.00;102119.56;5057331;28;20024;-48
2022/07/22 00:55:01;;;;;;;11.88;5.05;;;;;;;15.87;100.00;102123.28;5056623;28;20139;-50
2022/07/22 00:57:26;;;;;;;20.88;5.05;;;;;;;15.80;100.00;102117.69;5055966;28;20269;-46
2022/07/22 00:59:52;;;;;;;20.63;5.25;;;;;;;15.80;100.00;102122.22;5064973;28;20400;-49
2022/07/22 01:02:17;;;;;;;17.05;5.30;;;;;;;15.76;100.00;102120.88;5054706;28;20104;-48
2022/07/22 01:04:43;;;;;;;16.33;4.88;;;;;;;15.68;100.00;102118.94;5055921;28;20018;-50
2022/07/22 01:07:08;;;;;;;20.50;5.00;;;;;;;15.65;100.00;102122.00;5056652;28;20143;-50
2022/07/22 01:09:33;;;;;;;19.88;4.97;;;;;;;15.60;100.00;102114.41;5051520;28;20020;-49
2022/07/22 01:11:59;;;;;;;16.90;4.97;;;;;;;15.57;100.00;102106.63;5054402;28;20029;-49
2022/07/22 01:14:25;;;;;;;18.10;5.45;;;;;;;15.55;100.00;102116.75;5048413;28;20038;-48
2022/07/22 01:16:50;;;;;;;15.15;4.63;;;;;;;15.54;100.00;102111.50;5062592;28;20155;-49
2022/07/22 01:19:16;;;;;;;18.45;4.80;;;;;;;15.52;100.00;102108.97;5052450;28;20043;-50
2022/07/22 01:21:41;;;;;;;14.40;4.68;;;;;;;15.51;100.00;102103.75;5070426;28;20148;-50
2022/07/22 01:24:06;;;;;;;16.77;5.00;;;;;;;15.47;100.00;102103.25;5055387;28;20101;-49
2022/07/22 01:26:33;;;;;;;15.75;5.07;;;;;;;15.41;100.00;102104.75;5055777;28;20036;-49
2022/07/22 01:28:58;;;;;;;16.20;4.63;;;;;;;15.43;100.00;102109.97;5044961;28;20012;-50
2022/07/22 01:31:24;;;;;;;14.98;4.57;;;;;;;15.40;100.00;102105.75;5053042;28;20384;-48
2022/07/22 01:33:49;;;;;;;17.50;4.95;;;;;;;15.44;100.00;102106.25;5055796;28;20032;-51
2022/07/22 01:36:15;;;;;;;14.52;4.60;;;;;;;15.50;100.00;102108.31;5042284;28;20352;-50
2022/07/22 01:38:40;;;;;;;16.55;4.90;;;;;;;15.50;100.00;102104.78;5054968;28;20027;-48
2022/07/22 01:41:06;;;;;;;14.50;4.80;;;;;;;15.50;100.00;102097.53;5055671;28;20028;-49
2022/07/22 01:43:32;;;;;;;19.08;4.65;;;;;;;15.54;100.00;102104.28;5055558;28;20032;-50
2022/07/22 01:45:57;;;;;;;13.85;4.70;;;;;;;15.50;100.00;102089.47;5055249;28;20021;-46
2022/07/22 01:48:23;;;;;;;17.98;4.70;;;;;;;15.55;100.00;102102.44;5055665;28;20390;-47
2022/07/22 01:50:49;;;;;;;14.93;4.65;;;;;;;15.59;100.00;102099.22;5055282;28;20029;-50
2022/07/22 01:53:14;;;;;;;16.60;4.72;;;;;;;15.59;100.00;102101.94;5056389;28;20008;-46
2022/07/22 01:55:40;;;;;;;20.20;5.35;;;;;;;15.57;100.00;102097.72;5069978;28;20017;-50
2022/07/22 01:58:05;;;;;;;20.85;5.00;;;;;;;15.57;100.00;102105.81;5055426;28;20733;-49
2022/07/22 02:00:32;;;;;;;12.32;4.68;;;;;;;15.59;100.00;102107.31;5054635;28;20113;-49
2022/07/22 02:02:58;;;;;;;18.02;5.13;;;;;;;15.64;100.00;102113.06;5056588;28;20025;-50
2022/07/22 02:05:23;;;;;;;16.00;4.97;;;;;;;15.67;100.00;102112.72;5054370;28;20603;-47
2022/07/22 02:07:49;;;;;;;16.63;4.80;;;;;;;15.69;100.00;102103.66;5071172;28;20024;-52
2022/07/22 02:10:14;;;;;;;16.35;4.85;;;;;;;15.58;100.00;102102.97;5055622;28;20125;-50
2022/07/22 02:12:39;;;;;;;15.05;4.57;;;;;;;15.50;100.00;102097.53;5054699;28;20060;-48
2022/07/22 02:15:06;;;;;;;13.25;4.53;;;;;;;15.54;100.00;102098.06;5056152;28;20046;-46
2022/07/22 02:17:33;;;;;;;17.42;4.88;;;;;;;15.55;100.00;102102.44;5058098;28;20016;-47
2022/07/22 02:19:59;;;;;;;15.18;5.00;;;;;;;15.55;100.00;102110.53;5059888;28;20028;-49
2022/07/22 02:22:24;;;;;;;11.55;4.55;;;;;;;15.46;100.00;102099.72;5055832;28;20036;-48
2022/07/22 02:24:49;;;;;;;13.55;4.75;;;;;;;15.44;100.00;102101.72;5055203;28;20034;-51
2022/07/22 02:27:14;;;;;;;12.15;5.20;;;;;;;15.49;100.00;102106.59;5055646;28;20032;-49
2022/07/22 02:29:40;;;;;;;12.55;5.13;;;;;;;15.51;100.00;102099.19;5053115;28;20089;-49
2022/07/22 02:32:05;;;;;;;28.73;5.65;;;;;;;15.48;100.00;102091.47;5059114;28;20036;-51
2022/07/22 02:34:30;;;;;;;16.42;5.28;;;;;;;15.53;100.00;102088.28;5059335;28;21441;-51
2022/07/22 02:36:56;;;;;;;15.00;5.30;;;;;;;15.54;100.00;102088.13;5074079;28;20032;-50
2022/07/22 02:39:22;;;;;;;20.23;5.13;;;;;;;15.58;100.00;102094.88;5059277;28;20023;-51
2022/07/22 02:41:47;;;;;;;18.27;5.18;;;;;;;15.58;100.00;102096.69;5060407;28;20375;-51
2022/07/22 02:44:12;;;;;;;17.15;5.38;;;;;;;15.59;100.00;102088.47;5057237;28;20017;-50
2022/07/22 02:46:38;;;;;;;22.13;5.60;;;;;;;15.62;100.00;102098.91;5058366;28;20044;-51
2022/07/22 02:49:04;;;;;;;20.85;5.70;;;;;;;15.64;100.00;102091.50;5055728;28;20035;-50
2022/07/22 02:51:29;;;;;;;19.25;4.90;;;;;;;15.69;100.00;102090.19;5059442;28;20145;-51
2022/07/22 02:53:55;;;;;;;17.77;5.43;;;;;;;15.67;100.00;102088.50;5059341;28;20032;-50
2022/07/22 02:56:20;;;;;;;19.80;5.15;;;;;;;15.71;100.00;102090.88;5058883;28;20530;-47
2022/07/22 02:58:46;;;;;;;21.52;5.18;;;;;;;15.73;100.00;102091.53;5057696;28;20024;-48
2022/07/22 03:01:12;;;;;;;15.65;5.18;;;;;;;15.66;100.00;102088.66;5058940;28;20107;-50
2022/07/22 03:03:38;;;;;;;15.60;5.00;;;;;;;15.70;100.00;102087.34;5058398;28;20320;-48
2022/07/22 03:06:03;;;;;;;19.90;4.90;;;;;;;15.75;100.00;102084.13;5057837;28;20668;-49
2022/07/22 03:08:28;;;;;;;14.00;4.50;;;;;;;15.80;100.00;102089.91;5065737;28;20099;-50
2022/07/22 03:10:54;;;;;;;23.10;5.03;;;;;;;15.82;100.00;102083.34;5059221;28;20032;-48
2022/07/22 03:13:19;;;;;;;20.42;5.05;;;;;;;15.83;100.00;102092.25;5058951;28;20233;-50
2022/07/22 03:15:44;;;;;;;19.67;5.63;;;;;;;15.83;100.00;102092.25;5057286;28;20028;-49
2022/07/22 03:18:10;;;;;;;21.27;5.47;;;;;;;15.82;100.00;102079.81;5067889;28;20031;-50
2022/07/22 03:20:36;;;;;;;16.88;5.47;;;;;;;15.79;100.00;102088.22;5058510;28;20119;-46
2022/07/22 03:23:01;;;;;;;17.30;5.38;;;;;;;15.78;100.00;102082.00;5065633;28;20108;-50
2022/07/22 03:25:26;;;;;;;19.80;5.20;;;;;;;15.80;100.00;102081.81;5057972;28;20026;-48
2022/07/22 03:27:52;;;;;;;22.05;5.30;;;;;;;15.76;100.00;102080.47;5059110;28;20017;-48
2022/07/22 03:30:17;;;;;;;20.98;5.32;;;;;;;15.69;100.00;102077.56;5056817;28;20020;-51
2022/07/22 03:32:46;;;;;;;20.73;5.20;;;;;;;15.72;100.00;102079.94;5058500;28;20024;-48
2022/07/22 03:35:12;;;;;;;18.02;5.18;;;;;;;15.69;100.00;102077.56;5057024;28;20028;-51
2022/07/22 03:37:38;;;;;;;24.02;5.53;;;;;;;15.69;100.00;102074.88;5058013;28;20028;-49
2022/07/22 03:40:04;;;;;;;14.73;5.10;;;;;;;15.67;100.00;102075.03;5056934;28;20028;-50
2022/07/22 03:42:29;;;;;;;15.25;5.00;;;;;;;15.69;100.00;102076.72;5059938;28;20025;-47
2022/07/22 03:44:54;;;;;;;23.30;4.97;;;;;;;15.68;100.00;102081.25;5056307;28;20036;-47
2022/07/22 03:47:22;;;;;;;15.90;4.47;;;;;;;15.73;100.00;102075.38;5073796;28;20108;-48
2022/07/22 03:49:47;;;;;;;18.13;5.00;;;;;;;15.79;100.00;102082.84;5057513;28;20110;-47
2022/07/22 03:52:13;;;;;;;18.00;4.75;;;;;;;15.75;100.00;102078.75;5060133;28;20025;-48
2022/07/22 03:54:38;;;;;;;15.50;4.70;;;;;;;15.74;100.00;102085.16;5058444;28;20025;-48
2022/07/22 03:57:03;;;;;;;21.48;4.72;;;;;;;15.73;100.00;102080.75;5068039;28;20048;-49
2022/07/22 03:59:29;;;;;;;13.18;4.63;;;;;;;15.79;100.00;102091.75;5059109;28;20047;-51
2022/07/22 04:01:54;;;;;;;20.85;4.65;;;;;;;15.83;100.00;102090.44;5058527;28;20050;-49
2022/07/22 04:04:19;;;;;;;20.50;5.00;;;;;;;15.80;100.00;102088.06;5056222;28;20028;-49
2022/07/22 04:06:45;;;;;;;13.63;4.75;;;;;;;15.74;100.00;102086.00;5058304;28;20012;-48
2022/07/22 04:09:10;;;;;;;14.80;4.93;;;;;;;15.74;100.00;102091.38;5057416;28;20019;-48
2022/07/22 04:11:36;;;;;;;17.42;4.93;;;;;;;15.74;100.00;102086.00;5067178;28;20407;-49
2022/07/22 04:14:01;;;;;;;19.00;5.25;;;;;;;15.77;100.00;102091.09;5055992;28;20052;-49
2022/07/22 04:16:26;;;;;;;16.83;5.22;;;;;;;15.80;100.00;102088.06;5072360;28;20792;-50
2022/07/22 04:18:51;;;;;;;20.55;5.35;;;;;;;15.82;100.00;102088.75;5056262;28;20551;-48
2022/07/22 04:21:17;;;;;;;14.40;5.15;;;;;;;15.83;100.00;102094.97;5057779;28;20037;-47
2022/07/22 04:23:42;;;;;;;15.75;5.22;;;;;;;15.81;100.00;102094.28;5057278;28;20080;-48
2022/07/22 04:26:07;;;;;;;16.40;5.15;;;;;;;15.73;100.00;102088.84;5057385;28;20032;-47
2022/07/22 04:28:37;;;;;;;14.70;4.95;;;;;;;15.73;100.00;102091.53;5056589;28;20027;-50
2022/07/22 04:31:03;;;;;;;18.52;5.55;;;;;;;15.66;100.00;102089.53;5057972;28;20286;-51
2022/07/22 04:33:29;;;;;;;16.75;5.38;;;;;;;15.71;100.00;102083.63;5057288;28;20224;-50
2022/07/22 04:35:54;;;;;;;19.98;6.18;;;;;;;15.72;100.00;102079.09;5056832;28;20065;-49
2022/07/22 04:38:20;;;;;;;15.05;5.88;;;;;;;15.75;100.00;102086.81;5057398;28;20406;-47
2022/07/22 04:40:45;;;;;;;18.25;5.90;;;;;;;15.79;100.00;102080.97;5057572;28;20031;-47
2022/07/22 04:43:10;;;;;;;22.02;5.95;;;;;;;15.82;100.00;102086.03;5057569;28;20017;-50
2022/07/22 04:45:36;;;;;;;23.30;6.28;;;;;;;15.87;100.00;102087.38;5053532;28;20024;-50
2022/07/22 04:48:01;;;;;;;19.73;5.65;;;;;;;15.93;100.00;102086.72;5058809;28;20089;-48
2022/07/22 04:50:26;;;;;;;15.52;5.68;;;;;;;15.93;100.00;102084.88;5055000;28;20020;-49
2022/07/22 04:52:52;;;;;;;20.20;6.05;;;;;;;15.97;100.00;102083.56;5056917;28;20013;-49
2022/07/22 04:55:17;;;;;;;19.23;6.32;;;;;;;16.00;100.00;102083.22;5056817;28;20261;-51
2022/07/22 04:57:43;;;;;;;16.63;5.72;;;;;;;16.01;100.00;102082.19;5060650;28;20044;-50
2022/07/22 05:00:08;;;;;;;20.08;5.93;;;;;;;16.09;100.00;102085.91;5054890;28;20037;-51
2022/07/22 05:02:34;;;;;;;18.73;5.95;;;;;;;16.10;100.00;102068.72;5057268;28;20659;-49
2022/07/22 05:04:59;;;;;;;16.70;6.10;;;;;;;16.06;100.00;102076.31;5056719;28;20024;-48
2022/07/22 05:07:24;;;;;;;15.00;6.00;;;;;;;16.09;100.00;102081.38;5057329;28;20013;-47
2022/07/22 05:09:49;;;;;;;16.98;5.40;;;;;;;16.13;100.00;102079.19;5055955;28;20115;-48
2022/07/22 05:12:15;;;;;;;18.40;5.95;;;;;;;16.12;100.00;102070.22;5072153;28;20021;-50
2022/07/22 05:14:40;;;;;;;13.90;5.50;;;;;;;16.15;100.00;102069.91;5055032;28;20464;-48
2022/07/22 05:17:10;;;;;;;20.67;5.78;;;;;;;16.18;100.00;102082.22;5062110;28;20032;-46
2022/07/22 05:19:38;;;;;;;19.17;5.75;;;;;;;16.22;100.00;102078.16;5059953;28;20016;-50
2022/07/22 05:22:03;;;;;;;17.83;6.05;;;;;;;16.28;100.00;102077.50;5053036;28;20029;-47
2022/07/22 05:24:28;;;;;;;15.63;5.50;;;;;;;16.31;100.00;102077.16;5047819;28;20170;-49
2022/07/22 05:26:54;;;;;;;13.80;5.57;;;;;;;16.41;100.00;102082.38;5056195;28;20036;-48
2022/07/22 05:29:19;;;;;;;11.88;5.90;;;;;;;16.46;100.00;102080.00;5049882;28;20024;-50
2022/07/22 05:31:45;;;;;;;16.90;6.05;;;;;;;16.50;100.00;102081.38;5053521;28;20009;-50
2022/07/22 05:34:10;;;;;;;14.32;5.72;;;;;;;16.54;100.00;102077.31;5050599;28;20024;-49
2022/07/22 05:36:35;;;;;;;15.38;5.82;;;;;;;16.60;100.00;102081.19;5046675;28;20036;-50
2022/07/22 05:39:01;;;;;;;16.70;5.80;;;;;;;16.65;100.00;102075.25;5048116;28;20415;-51
2022/07/22 05:41:26;;;;;;;15.85;5.60;;;;;;;16.68;100.00;102083.00;5054193;28;20036;-49
2022/07/22 05:43:51;;;;;;;19.42;6.03;;;;;;;16.75;100.00;102081.31;5037460;28;20051;-50
2022/07/22 05:46:16;;;;;;;14.40;5.70;;;;;;;16.79;100.00;102080.81;5045280;28;20084;-49
2022/07/22 05:48:42;;;;;;;17.27;6.13;;;;;;;16.85;100.00;102081.16;5050490;28;20309;-51
2022/07/22 05:51:14;;;;;;;17.25;5.95;;;;;;;16.87;100.00;102082.69;5052107;28;20012;-50
2022/07/22 05:53:41;;;;;;;18.33;6.22;;;;;;;16.92;100.00;102084.84;5053364;28;20487;-50
2022/07/22 05:56:06;;;;;;;16.90;6.00;;;;;;;17.01;100.00;102088.38;5055004;28;20027;-49
2022/07/22 05:58:32;;;;;;;19.25;6.30;;;;;;;17.10;100.00;102080.06;5053872;28;20615;-48
2022/07/22 06:00:58;;;;;;;19.92;5.68;;;;;;;17.20;100.00;102081.75;5055426;28;20642;-48
2022/07/22 06:03:23;;;;;;;23.10;5.55;;;;;;;17.33;100.00;102079.31;5067131;28;20085;-49
2022/07/22 06:05:49;;;;;;;16.05;5.57;;;;;;;17.40;100.00;102082.16;5053241;28;20430;-48
2022/07/22 06:08:14;;;;;;;19.58;4.78;;;;;;;17.41;100.00;102075.72;5057644;28;20047;-50
2022/07/22 06:10:39;;;;;;;15.13;5.30;;;;;;;17.42;100.00;102070.16;5054174;28;20029;-49
2022/07/22 06:13:04;;;;;;;14.90;5.25;;;;;;;17.46;100.00;102073.34;5055010;28;20499;-49
2022/07/22 06:15:30;;;;;;;13.48;5.05;;;;;;;17.50;100.00;102083.63;5052940;28;20312;-48
2022/07/22 06:17:55;;;;;;;20.25;5.25;;;;;;;17.62;100.00;102085.94;5037414;28;20044;-48
2022/07/22 06:20:20;;;;;;;20.40;5.85;;;;;;;17.66;100.00;102068.34;5038846;28;20041;-51
2022/07/22 06:22:46;;;;;;;17.98;4.85;;;;;;;17.74;100.00;102080.97;5040863;28;20482;-51
2022/07/22 06:25:11;;;;;;;15.95;5.05;;;;;;;17.74;100.00;102083.69;5040952;28;20044;-51
2022/07/22 06:27:36;;;;;;;15.73;5.68;;;;;;;17.66;100.00;102077.28;5046885;28;20415;-49
2022/07/22 06:30:03;;;;;;;22.73;5.78;;;;;;;17.59;100.00;102086.28;5046544;28;20041;-49
2022/07/22 06:32:28;;;;;;;13.70;4.13;;;;;;;17.50;100.00;102075.53;5046116;28;20017;-49
2022/07/22 06:34:54;;;;;;;13.50;3.95;;;;;;;17.49;100.00;102083.81;5047356;28;20555;-50
2022/07/22 06:37:19;;;;;;;13.88;3.97;;;;;;;17.56;100.00;102081.22;5046437;28;20028;-50
2022/07/22 06:39:46;;;;;;;16.30;4.15;;;;;;;17.62;100.00;102083.25;5046528;28;20026;-51
2022/07/22 06:42:12;;;;;;;12.23;3.58;;;;;;;17.59;100.00;102081.72;5036646;28;20032;-51
2022/07/22 06:44:37;;;;;;;19.77;4.07;;;;;;;17.73;100.00;102084.69;5043730;28;20017;-51
2022/07/22 06:47:03;;;;;;;17.35;4.22;;;;;;;17.83;100.00;102079.88;5041587;28;20095;-52
2022/07/22 06:49:28;;;;;;;17.05;3.70;;;;;;;18.00;100.00;102080.66;5047652;28;20089;-51
2022/07/22 06:51:53;;;;;;;16.27;3.38;;;;;;;18.07;100.00;102074.34;5047785;28;20038;-51
2022/07/22 06:54:19;;;;;;;10.63;3.58;;;;;;;18.08;100.00;102073.31;5050959;28;20028;-49
2022/07/22 06:56:44;;;;;;;12.73;3.78;;;;;;;18.11;100.00;102080.25;5050046;28;20048;-51
2022/07/22 06:59:09;;;;;;;13.30;3.42;;;;;;;18.25;100.00;102082.13;5056297;28;20038;-49
2022/07/22 07:01:34;;;;;;;10.95;3.53;;;;;;;18.32;100.00;102081.41;5055064;28;20485;-49
2022/07/22 07:04:00;;;;;;;15.57;3.80;;;;;;;18.47;100.00;102085.00;5054487;28;20475;-49
2022/07/22 07:06:25;;;;;;;13.50;3.95;;;;;;;18.68;100.00;102086.16;5050978;28;20052;-51
2022/07/22 07:08:51;;;;;;;13.43;3.50;;;;;;;18.97;100.00;102082.66;5044402;28;20024;-48
2022/07/22 07:11:16;;;;;;;10.85;2.65;;;;;;;19.16;100.00;102083.94;5045198;28;20031;-50
2022/07/22 07:13:41;;;;;;;8.60;2.60;;;;;;;19.31;98.78;102087.47;5040544;28;20024;-51
2022/07/22 07:16:07;;;;;;;12.43;2.95;;;;;;;19.33;97.58;102079.16;5053890;28;20034;-50
2022/07/22 07:18:32;;;;;;;11.13;2.70;;;;;;;19.37;99.43;102075.91;5064971;28;20506;-50
2022/07/22 07:20:58;;;;;;;10.35;2.17;;;;;;;19.45;99.78;102074.97;5058307;28;20125;-51
2022/07/22 07:23:23;;;;;;;6.70;2.00;;;;;;;19.56;96.17;102068.22;5052492;28;20029;-52
2022/07/22 07:25:48;;;;;;;4.95;2.00;;;;;;;19.51;95.10;102067.94;5044646;28;20129;-49
2022/07/22 07:28:14;;;;;;;8.65;2.10;;;;;;;19.60;97.70;102066.78;5058649;28;20229;-51
2022/07/22 07:30:39;;;;;;;7.35;1.63;;;;;;;19.62;90.68;102066.59;5056758;28;20032;-51
2022/07/22 07:33:04;;;;;;;4.45;1.60;;;;;;;19.73;93.02;102064.22;5058265;28;20440;-51
2022/07/22 07:35:30;;;;;;;5.97;1.55;;;;;;;19.78;89.92;102062.84;5056769;28;20258;-51
2022/07/22 07:37:55;;;;;;;5.72;1.70;;;;;;;20.06;90.99;102071.91;5053223;28;20041;-52
2022/07/22 07:40:21;;;;;;;4.80;1.63;;;;;;;20.20;82.89;102069.31;5054882;28;20285;-51
2022/07/22 07:42:46;;;;;;;4.32;1.70;;;;;;;20.23;86.55;102066.19;5053886;28;20013;-49
2022/07/22 07:45:12;;;;;;;7.68;1.92;;;;;;;20.36;90.44;102066.28;5064145;28;20498;-48
2022/07/22 07:47:37;;;;;;;5.60;1.67;;;;;;;20.37;86.49;102069.88;5059157;28;20101;-51
2022/07/22 07:50:05;;;;;;;3.97;1.77;;;;;;;20.29;85.01;102073.53;5050559;28;20502;-49
2022/07/22 07:52:30;;;;;;;8.60;1.45;;;;;;;20.20;88.63;102074.75;5055177;28;20482;-48
2022/07/22 07:54:56;;;;;;;3.88;1.40;;;;;;;20.10;88.40;102072.34;5061820;28;20036;-49
2022/07/22 07:57:22;;;;;;;7.00;1.45;;;;;;;20.04;86.52;102082.06;5067522;28;20431;-51
2022/07/22 07:59:47;;;;;;;5.63;1.45;;;;;;;19.97;87.59;102072.22;5058639;28;20123;-51
2022/07/22 08:02:13;;;;;;;8.07;1.70;;;;;;;19.92;88.81;102065.50;5045633;28;20033;-52
2022/07/22 08:04:38;;;;;;;4.85;1.70;;;;;;;19.98;87.63;102071.19;5035664;28;20533;-51
2022/07/22 08:07:06;;;;;;;10.52;1.77;;;;;;;20.24;90.55;102074.13;5037568;28;20107;-47
2022/07/22 08:09:32;;;;;;;7.85;1.90;;;;;;;20.56;83.77;102071.06;5038462;28;20040;-48
2022/07/22 08:11:57;;;;;;;4.65;1.70;;;;;;;20.76;77.52;102069.34;5038389;28;20036;-47
2022/07/22 08:14:23;;;;;;;9.32;1.38;;;;;;;20.96;81.64;102057.75;5054071;28;20489;-50
2022/07/22 08:16:49;;;;;;;8.52;1.58;;;;;;;21.20;79.27;102065.41;5054071;28;20541;-49
2022/07/22 08:19:14;;;;;;;8.60;1.58;;;;;;;21.13;76.42;102069.97;5052856;28;20317;-49
2022/07/22 08:21:41;;;;;;;8.88;1.48;;;;;;;20.90;76.79;102062.09;5053142;28;20032;-48
2022/07/22 08:24:08;;;;;;;7.50;1.60;;;;;;;20.62;80.56;102068.41;5055104;28;20062;-46
2022/07/22 08:26:34;;;;;;;7.82;2.15;;;;;;;20.49;81.72;102063.69;5055140;28;20112;-49
2022/07/22 08:28:59;;;;;;;3.47;1.48;;;;;;;20.36;78.34;102063.59;5054993;28;20146;-47
2022/07/22 08:31:24;;;;;;;6.95;1.75;;;;;;;20.27;79.80;102068.31;5057205;28;20036;-48
2022/07/22 08:33:50;;;;;;;7.57;2.42;;;;;;;20.27;79.78;102070.19;5055881;28;20040;-47
2022/07/22 08:36:15;;;;;;;10.23;2.33;;;;;;;20.17;77.97;102069.69;5057578;28;20474;-50
2022/07/22 08:38:40;;;;;;;8.40;2.47;;;;;;;19.99;78.19;102065.53;5055965;28;20031;-48
2022/07/22 08:41:05;;;;;;;10.18;2.53;;;;;;;19.89;79.66;102057.75;5055524;28;20482;-47
2022/07/22 08:43:35;;;;;;;9.43;2.03;;;;;;;19.81;81.23;102051.63;5055377;28;20028;-47
2022/07/22 08:46:01;;;;;;;5.13;1.90;;;;;;;19.72;78.69;102053.56;5052613;28;20025;-48
2022/07/22 08:48:27;;;;;;;7.97;2.20;;;;;;;19.71;81.99;102051.91;5055808;28;20104;-48
2022/07/22 08:50:52;;;;;;;5.00;2.00;;;;;;;19.75;81.92;102050.50;5056820;28;20115;-47
2022/07/22 08:53:17;;;;;;;6.50;2.28;;;;;;;19.83;83.26;102049.56;5056538;28;20059;-46
2022/07/22 08:55:44;;;;;;;9.57;2.42;;;;;;;19.97;81.23;102043.22;5056623;28;20021;-50
2022/07/22 08:58:10;;;;;;;6.22;2.40;;;;;;;19.98;78.36;102052.22;5042518;28;20032;-49
2022/07/22 09:00:35;;;;;;;8.57;2.30;;;;;;;20.17;82.26;102040.69;5055350;28;20035;-50
2022/07/22 09:03:17;;;;;;;6.38;2.22;;;;;;;20.38;81.50;102041.69;5056182;28;20040;-47
2022/07/22 09:05:42;;;;;;;5.65;2.40;;;;;;;20.45;81.64;102057.00;5056048;28;20108;-50
2022/07/22 09:08:08;;;;;;;7.85;2.50;;;;;;;20.63;80.43;102047.53;5055869;28;20095;-48
2022/07/22 09:10:34;;;;;;;9.15;2.35;;;;;;;20.78;78.89;102045.53;5056706;28;20077;-50
2022/07/22 09:13:02;;;;;;;5.43;2.20;;;;;;;21.07;78.90;102059.91;5057038;28;20070;-49
2022/07/22 09:15:29;;;;;;;5.82;2.15;;;;;;;21.33;75.30;102053.72;5055202;28;20175;-51
2022/07/22 09:17:58;;;;;;;5.50;2.03;;;;;;;21.58;76.88;102058.66;5056538;28;20390;-50
2022/07/22 09:20:23;;;;;;;6.18;1.95;;;;;;;21.60;73.55;102056.56;5056195;28;20094;-48
2022/07/22 09:22:49;;;;;;;5.00;1.85;;;;;;;21.80;74.67;102048.47;5055278;28;20032;-50
2022/07/22 09:25:20;;;;;;;4.18;1.98;;;;;;;21.98;69.95;102053.31;5055362;28;20031;-49
2022/07/22 09:27:47;;;;;;;7.45;2.20;;;;;;;22.12;67.50;102048.72;5056884;28;20032;-51
2022/07/22 09:30:21;;;;;;;8.70;1.95;;;;;;;21.97;69.58;102044.31;5054561;28;20176;-50
2022/07/22 09:32:48;;;;;;;5.72;2.20;;;;;;;21.92;67.58;102051.41;5056788;28;20047;-50
2022/07/22 09:35:14;;;;;;;6.45;2.33;;;;;;;21.90;70.11;102042.63;5054203;28;20024;-48
2022/07/22 09:37:48;;;;;;;6.95;2.70;;;;;;;21.82;67.64;102051.00;5056350;28;20506;-48
2022/07/22 09:40:19;;;;;;;6.72;2.45;;;;;;;21.57;66.78;102038.81;5070581;28;20174;-50
2022/07/22 09:42:53;;;;;;;9.38;2.28;;;;;;;21.43;67.89;102031.63;5071800;28;20070;-50
2022/07/22 09:45:20;;;;;;;4.78;2.47;;;;;;;21.39;71.46;102031.19;5054014;28;20020;-46
2022/07/22 09:47:46;;;;;;;8.52;2.65;;;;;;;21.46;74.89;102025.78;5055890;28;20023;-46
2022/07/22 09:50:31;;;;;;;4.45;2.53;;;;;;;21.43;69.39;102016.16;5054691;28;20135;-50
2022/07/22 09:52:58;;;;;;;8.80;2.83;;;;;;;21.21;68.75;102026.31;5056354;28;20032;-48
2022/07/22 09:55:26;;;;;;;7.85;2.70;;;;;;;21.14;71.14;102030.88;5055690;28;20034;-50
2022/07/22 09:57:53;;;;;;;6.03;2.50;;;;;;;21.08;73.45;102029.00;5054626;28;20153;-51
2022/07/22 10:00:21;;;;;;;4.28;2.63;;;;;;;21.01;70.94;102022.66;5054049;28;20052;-49
2022/07/22 10:02:55;;;;;;;6.88;2.42;;;;;;;20.97;69.88;102032.28;5056146;28;20044;-50
2022/07/22 10:05:26;;;;;;;7.53;2.90;;;;;;;21.08;72.31;102031.72;5055372;28;20028;-50
2022/07/22 10:07:52;;;;;;;6.82;2.67;;;;;;;21.15;72.95;102026.31;5056066;28;20351;-49
2022/07/22 10:10:21;;;;;;;8.70;3.00;;;;;;;21.14;72.49;102027.34;5054342;28;20490;-49
2022/07/22 10:12:52;;;;;;;9.32;3.10;;;;;;;21.29;72.50;102029.91;5056323;28;20032;-49
2022/07/22 10:15:17;;;;;;;6.15;3.20;;;;;;;21.44;70.90;102033.31;5054377;28;20127;-50
2022/07/22 10:17:48;;;;;;;7.20;3.42;;;;;;;21.56;69.56;102039.00;5055823;28;20667;-50
2022/07/22 10:20:16;;;;;;;10.17;3.63;;;;;;;21.50;67.68;102034.38;5055169;28;20023;-49
2022/07/22 10:22:42;;;;;;;9.57;3.42;;;;;;;21.49;67.83;102039.00;5054891;28;20860;-49
2022/07/22 10:25:09;;;;;;;8.30;3.33;;;;;;;21.72;68.96;102040.50;5055241;28;20104;-49
2022/07/22 10:27:45;;;;;;;8.30;3.30;;;;;;;22.27;68.36;102033.03;5055684;28;20358;-49
2022/07/22 10:30:10;;;;;;;8.73;3.78;;;;;;;22.94;69.98;102037.53;5053609;28;20040;-51
2022/07/22 10:32:36;;;;;;;6.78;3.70;;;;;;;23.43;63.41;102041.53;5055121;28;20426;-50
2022/07/22 10:35:20;;;;;;;10.05;3.97;;;;;;;23.66;63.66;102035.53;5054227;28;20032;-49
2022/07/22 10:37:49;;;;;;;5.57;3.40;;;;;;;23.82;64.68;102035.03;5041754;28;20020;-49
2022/07/22 10:40:22;;;;;;;8.77;3.78;;;;;;;24.03;58.23;102035.72;5054737;28;20036;-50
2022/07/22 10:42:57;;;;;;;12.43;4.18;;;;;;;24.17;56.52;102040.00;5055560;28;20016;-50
2022/07/22 10:45:24;;;;;;;6.90;3.70;;;;;;;24.15;58.94;102042.13;5049165;28;20021;-51
2022/07/22 10:47:53;;;;;;;12.38;4.10;;;;;;;24.00;54.89;102042.47;5053320;28;20029;-49
2022/07/22 10:50:37;;;;;;;7.68;3.40;;;;;;;24.19;61.45;102035.16;5054759;28;20056;-50
2022/07/22 10:53:39;;;;;;;9.55;5.00;;;;;;;23.78;61.00;102032.94;5075017;28;20060;-51
2022/07/22 10:56:29;;;;;;;8.93;5.30;;;;;;;23.59;57.79;102032.00;5058623;28;20088;-49
2022/07/22 10:59:04;;;;;;;8.00;5.20;;;;;;;23.02;61.22;102029.13;5057014;28;20094;-49
2022/07/22 11:01:31;;;;;;;8.45;5.68;;;;;;;23.05;59.08;102021.34;5059153;28;20020;-51
2022/07/22 11:04:12;;;;;;;16.83;5.65;;;;;;;23.40;64.74;102010.09;5072721;28;20082;-48
2022/07/22 11:06:38;;;;;;;8.57;4.80;;;;;;;23.93;62.29;102017.13;5058610;28;20021;-49
2022/07/22 11:09:09;;;;;;;10.25;5.10;;;;;;;24.25;60.24;102010.75;5058477;28;20051;-51
2022/07/22 11:11:49;;;;;;;6.57;4.35;;;;;;;24.37;57.91;102006.22;5058599;28;20020;-49